Time;durP1;ratioP1;P1;durP2;ratioP2;P2;SDS_P1;SDS_P2;PMS_P1;PMS_P2;Temp;Humidity;BMP_temperature;BMP_pressure;BME280_temperature;BME280_humidity;BME280_pressure;Samples;Min_cycle;Max_cycle;Signal;HPM_P1;HPM_P2
2023/07/06 00:02:23;;;;;;;14.73;4.15;;;15.40;77.60;;;;;;5029150;28;20080;-74
2023/07/06 00:04:49;;;;;;;11.00;4.15;;;15.40;77.80;;;;;;5028060;28;20104;-74
2023/07/06 00:07:20;;;;;;;14.63;3.70;;;15.30;77.90;;;;;;5037944;28;20064;-75
2023/07/06 00:09:48;;;;;;;14.43;4.38;;;15.30;78.10;;;;;;5021263;28;20028;-73
2023/07/06 00:12:14;;;;;;;11.80;4.05;;;15.40;78.00;;;;;;5033924;28;20022;-73
2023/07/06 00:14:40;;;;;;;11.25;3.90;;;15.30;78.20;;;;;;5024980;28;20049;-73
2023/07/06 00:17:12;;;;;;;15.73;4.63;;;15.30;78.10;;;;;;5023618;28;20095;-73
2023/07/06 00:19:39;;;;;;;12.27;4.20;;;15.20;78.30;;;;;;5028869;28;20080;-73
2023/07/06 00:22:06;;;;;;;13.52;4.40;;;15.30;78.40;;;;;;5029205;28;20045;-73
2023/07/06 00:24:32;;;;;;;14.63;4.53;;;15.20;78.60;;;;;;5028551;28;20017;-74
2023/07/06 00:26:58;;;;;;;14.65;4.88;;;15.20;78.70;;;;;;5027533;28;20398;-73
2023/07/06 00:29:23;;;;;;;15.02;4.35;;;15.20;78.50;;;;;;5036275;28;20488;-73
2023/07/06 00:32:03;;;;;;;12.13;4.43;;;15.20;78.50;;;;;;5025910;28;20033;-73
2023/07/06 00:34:35;;;;;;;15.48;4.90;;;15.10;78.50;;;;;;5027439;28;20021;-75
2023/07/06 00:37:03;;;;;;;14.43;5.05;;;15.10;78.20;;;;;;5034971;28;20765;-74
2023/07/06 00:39:28;;;;;;;13.13;4.00;;;15.00;78.40;;;;;;5029486;28;20021;-73
2023/07/06 00:41:54;;;;;;;11.95;4.68;;;14.90;78.60;;;;;;5021772;28;20165;-74
2023/07/06 00:44:57;;;;;;;10.27;3.95;;;14.90;78.70;;;;;;5030503;28;20104;-74
2023/07/06 00:47:29;;;;;;;13.77;4.97;;;14.80;78.70;;;;;;5027786;28;20124;-74
2023/07/06 00:49:57;;;;;;;9.90;4.50;;;14.70;78.60;;;;;;5032846;28;20096;-73
2023/07/06 00:52:23;;;;;;;11.55;4.32;;;14.70;78.70;;;;;;5027893;28;20021;-73
2023/07/06 00:54:49;;;;;;;9.80;4.20;;;14.60;78.90;;;;;;5028818;28;20021;-74
2023/07/06 00:57:17;;;;;;;11.23;4.05;;;14.60;78.90;;;;;;5028891;28;20156;-73
2023/07/06 00:59:44;;;;;;;15.27;4.53;;;14.60;78.90;;;;;;5031344;28;20028;-74
2023/07/06 01:02:13;;;;;;;11.05;4.20;;;14.50;78.80;;;;;;5033201;28;20424;-76
2023/07/06 01:04:40;;;;;;;12.10;4.70;;;14.50;79.10;;;;;;5039082;28;20017;-73
2023/07/06 01:07:07;;;;;;;11.32;4.07;;;14.50;79.00;;;;;;5033354;28;20456;-73
2023/07/06 01:09:32;;;;;;;11.32;4.07;;;14.50;79.00;;;;;;5033325;28;20501;-76
2023/07/06 01:12:02;;;;;;;10.68;4.45;;;14.40;79.30;;;;;;5029138;28;20037;-74
2023/07/06 01:14:29;;;;;;;12.77;4.68;;;14.40;79.30;;;;;;5033227;28;20788;-73
2023/07/06 01:16:59;;;;;;;12.52;4.53;;;14.30;79.30;;;;;;5028572;28;20033;-73
2023/07/06 01:19:40;;;;;;;11.63;4.70;;;14.30;79.50;;;;;;5030778;28;20083;-73
2023/07/06 01:22:48;;;;;;;14.27;4.97;;;14.20;79.60;;;;;;5030908;28;20912;-73
2023/07/06 01:25:51;;;;;;;10.93;4.22;;;14.20;79.90;;;;;;5019840;28;20041;-74
2023/07/06 01:28:41;;;;;;;11.10;4.70;;;14.10;80.00;;;;;;5037097;28;20033;-74
2023/07/06 01:31:57;;;;;;;10.35;4.50;;;14.10;80.30;;;;;;5025271;28;20068;-73
2023/07/06 01:34:41;;;;;;;13.43;5.40;;;14.10;80.30;;;;;;5033295;28;20533;-74
2023/07/06 01:37:29;;;;;;;11.90;4.68;;;14.10;80.40;;;;;;5032400;28;20069;-74
2023/07/06 01:39:54;;;;;;;13.48;4.65;;;14.10;80.30;;;;;;5029658;28;20406;-76
2023/07/06 01:42:32;;;;;;;12.48;4.65;;;14.00;80.70;;;;;;5028504;28;20022;-73
2023/07/06 01:45:01;;;;;;;10.80;4.80;;;13.90;81.10;;;;;;5028946;28;20497;-73
2023/07/06 01:47:29;;;;;;;13.40;4.53;;;13.90;81.30;;;;;;5027825;28;20033;-74
2023/07/06 01:49:56;;;;;;;13.07;4.85;;;13.90;81.30;;;;;;5035784;28;20029;-73
2023/07/06 01:52:44;;;;;;;11.07;4.57;;;13.80;81.10;;;;;;5026525;28;20040;-74
2023/07/06 01:55:31;;;;;;;14.52;4.68;;;13.90;81.40;;;;;;5036926;28;20040;-73
2023/07/06 01:58:23;;;;;;;11.88;4.78;;;13.90;81.60;;;;;;5031732;28;20029;-74
2023/07/06 02:00:55;;;;;;;12.48;5.18;;;13.90;81.60;;;;;;5030626;28;20112;-73
2023/07/06 02:03:24;;;;;;;14.07;5.43;;;13.90;81.60;;;;;;5035606;28;20470;-74
2023/07/06 02:05:51;;;;;;;12.93;5.85;;;13.80;81.70;;;;;;5023520;28;20034;-74
2023/07/06 02:08:18;;;;;;;15.63;5.07;;;13.80;81.80;;;;;;5030120;28;20034;-75
2023/07/06 02:10:44;;;;;;;12.55;5.53;;;13.80;81.80;;;;;;5031440;28;20386;-73
2023/07/06 02:13:10;;;;;;;14.18;5.43;;;13.80;82.10;;;;;;5033213;28;20052;-74
2023/07/06 02:15:36;;;;;;;13.65;5.65;;;13.70;82.20;;;;;;5026593;28;20041;-75
2023/07/06 02:18:02;;;;;;;16.40;5.50;;;13.70;82.20;;;;;;5039097;28;20037;-74
2023/07/06 02:20:28;;;;;;;11.80;5.20;;;13.70;82.30;;;;;;5030345;28;20030;-75
2023/07/06 02:22:53;;;;;;;13.10;5.90;;;13.70;82.20;;;;;;5037383;28;20054;-73
2023/07/06 02:25:20;;;;;;;10.93;5.05;;;13.70;82.40;;;;;;5038137;28;20033;-74
2023/07/06 02:27:46;;;;;;;14.43;5.70;;;13.70;82.40;;;;;;5033042;28;20382;-73
2023/07/06 02:30:12;;;;;;;11.80;4.80;;;13.70;82.40;;;;;;5031807;28;20033;-74
2023/07/06 02:32:39;;;;;;;14.10;5.28;;;13.70;82.50;;;;;;5031525;28;20087;-76
2023/07/06 02:35:06;;;;;;;14.88;5.45;;;13.70;82.60;;;;;;5027036;28;20072;-73
2023/07/06 02:37:32;;;;;;;12.27;5.28;;;13.60;82.50;;;;;;5035842;28;20020;-73
2023/07/06 02:40:00;;;;;;;16.02;5.20;;;13.60;82.60;;;;;;5028163;28;20038;-75
2023/07/06 02:42:26;;;;;;;16.27;5.25;;;13.60;82.70;;;;;;5029901;28;20532;-73
2023/07/06 02:44:53;;;;;;;13.80;5.68;;;13.60;82.80;;;;;;5026875;28;20108;-74
2023/07/06 02:47:18;;;;;;;13.95;5.15;;;13.60;82.80;;;;;;5033099;28;20037;-77
2023/07/06 02:49:44;;;;;;;16.38;5.75;;;13.60;82.80;;;;;;5025466;28;20104;-73
2023/07/06 02:52:09;;;;;;;11.88;4.90;;;13.60;83.00;;;;;;5037444;28;20345;-73
2023/07/06 02:54:36;;;;;;;12.60;4.97;;;13.60;83.20;;;;;;5032160;28;20036;-73
2023/07/06 02:57:01;;;;;;;14.32;4.72;;;13.50;83.10;;;;;;5032202;28;20394;-74
2023/07/06 02:59:30;;;;;;;19.00;5.28;;;13.50;83.20;;;;;;5029771;28;20111;-74
2023/07/06 03:01:59;;;;;;;12.95;5.10;;;13.50;83.30;;;;;;5027352;28;20033;-74
2023/07/06 03:04:27;;;;;;;14.50;4.95;;;13.50;83.50;;;;;;5029591;28;20033;-76
2023/07/06 03:06:55;;;;;;;18.40;5.93;;;13.40;83.50;;;;;;5023046;28;20058;-74
2023/07/06 03:09:22;;;;;;;11.73;4.97;;;13.40;83.60;;;;;;5015605;28;20136;-74
2023/07/06 03:11:49;;;;;;;14.32;5.18;;;13.50;83.50;;;;;;5027503;28;20033;-75
2023/07/06 03:14:15;;;;;;;16.38;5.45;;;13.30;83.50;;;;;;5026805;28;20116;-73
2023/07/06 03:16:42;;;;;;;12.00;5.47;;;13.30;83.80;;;;;;5028356;28;20096;-74
2023/07/06 03:19:09;;;;;;;14.07;5.40;;;13.30;83.90;;;;;;5028446;28;20035;-73
2023/07/06 03:21:37;;;;;;;12.45;4.78;;;13.30;84.00;;;;;;5028099;28;20025;-74
2023/07/06 03:24:03;;;;;;;11.05;5.10;;;13.30;84.20;;;;;;5028549;28;20609;-73
2023/07/06 03:26:29;;;;;;;14.82;4.75;;;13.30;84.00;;;;;;5027811;28;20029;-74
2023/07/06 03:28:55;;;;;;;13.85;5.60;;;13.30;84.00;;;;;;5013496;28;20033;-74
2023/07/06 03:31:21;;;;;;;14.07;5.43;;;13.20;84.10;;;;;;5026443;28;20041;-74
2023/07/06 03:33:47;;;;;;;17.50;5.03;;;13.20;84.20;;;;;;5027372;28;20374;-73
2023/07/06 03:36:13;;;;;;;17.27;5.78;;;13.20;84.30;;;;;;5025313;28;20104;-75
2023/07/06 03:38:38;;;;;;;12.82;5.70;;;13.20;84.30;;;;;;5026154;28;20088;-75
2023/07/06 03:41:05;;;;;;;14.40;5.15;;;13.20;84.50;;;;;;5023895;28;20080;-74
2023/07/06 03:43:31;;;;;;;12.93;5.05;;;13.20;84.40;;;;;;5018288;28;20065;-74
2023/07/06 03:45:57;;;;;;;12.13;5.10;;;13.20;84.40;;;;;;5021269;28;20034;-73
2023/07/06 03:48:23;;;;;;;12.80;4.85;;;13.20;84.40;;;;;;5045562;28;20060;-74
2023/07/06 03:50:52;;;;;;;12.90;5.75;;;13.30;84.40;;;;;;5043122;28;20059;-73
2023/07/06 03:53:19;;;;;;;12.73;5.03;;;13.40;84.40;;;;;;5039935;28;20068;-74
2023/07/06 03:55:44;;;;;;;13.18;5.07;;;13.30;84.20;;;;;;5035408;28;20067;-73
2023/07/06 03:58:10;;;;;;;15.45;5.28;;;13.40;84.30;;;;;;5041222;28;20021;-73
2023/07/06 04:00:36;;;;;;;13.73;5.13;;;13.30;84.30;;;;;;5032123;28;20041;-77
2023/07/06 04:03:03;;;;;;;16.13;5.40;;;13.40;84.30;;;;;;5031664;28;20036;-73
2023/07/06 04:05:38;;;;;;;15.63;5.75;;;13.40;84.30;;;;;;5027959;28;20085;-74
2023/07/06 04:08:06;;;;;;;;;;;13.40;84.10;;;;;;5024235;28;20033;-73
2023/07/06 04:10:33;;;;;;;13.05;5.28;;;13.50;84.20;;;;;;5036337;28;19978;-73
2023/07/06 04:12:59;;;;;;;13.10;5.22;;;13.60;84.00;;;;;;5032373;28;20481;-73
2023/07/06 04:15:25;;;;;;;13.32;4.80;;;13.60;83.80;;;;;;5029076;28;20076;-75
2023/07/06 04:17:54;;;;;;;15.93;5.30;;;13.60;83.80;;;;;;5038142;28;20044;-74
2023/07/06 04:20:22;;;;;;;13.75;5.07;;;13.60;83.80;;;;;;5047361;28;20448;-76
2023/07/06 04:22:49;;;;;;;17.30;5.88;;;13.60;83.70;;;;;;5048923;28;20483;-73
2023/07/06 04:25:19;;;;;;;15.32;5.53;;;13.70;83.70;;;;;;5046434;28;20061;-75
2023/07/06 04:27:48;;;;;;;13.10;5.18;;;13.70;83.30;;;;;;5034353;28;20534;-73
2023/07/06 04:30:16;;;;;;;14.93;5.20;;;13.80;83.40;;;;;;5042131;28;20454;-74
2023/07/06 04:32:42;;;;;;;18.45;6.13;;;13.80;83.60;;;;;;5039770;28;20031;-76
2023/07/06 04:35:14;;;;;;;11.65;5.07;;;13.80;83.60;;;;;;5044236;28;20025;-73
2023/07/06 04:37:41;;;;;;;18.02;6.40;;;13.80;83.30;;;;;;5038087;28;20040;-73
2023/07/06 04:40:12;;;;;;;10.10;4.95;;;13.90;83.40;;;;;;5028613;28;20117;-74
2023/07/06 04:42:40;;;;;;;15.07;5.45;;;14.10;83.30;;;;;;5030809;28;20525;-73
2023/07/06 04:45:09;;;;;;;11.70;4.72;;;14.10;83.00;;;;;;5038224;28;20544;-73
2023/07/06 04:47:38;;;;;;;16.48;5.40;;;14.20;83.00;;;;;;5040076;28;20013;-73
2023/07/06 04:50:22;;;;;;;11.63;4.78;;;14.10;82.90;;;;;;5037337;28;20029;-74
2023/07/06 04:52:55;;;;;;;14.70;5.68;;;14.30;82.60;;;;;;5039074;28;20044;-73
2023/07/06 04:55:23;;;;;;;18.00;5.43;;;14.30;82.50;;;;;;5045217;28;20433;-74
2023/07/06 04:57:54;;;;;;;14.20;5.97;;;14.40;82.50;;;;;;5038198;28;20394;-73
2023/07/06 05:00:24;;;;;;;12.70;5.03;;;14.50;82.40;;;;;;5028273;28;20073;-73
2023/07/06 05:02:59;;;;;;;15.80;5.97;;;14.50;82.10;;;;;;5028200;28;20063;-74
2023/07/06 05:05:28;;;;;;;15.35;5.40;;;14.50;82.50;;;;;;5039652;28;20119;-73
2023/07/06 05:07:55;;;;;;;13.65;5.30;;;14.60;82.30;;;;;;5033257;28;20021;-74
2023/07/06 05:10:21;;;;;;;17.83;6.10;;;14.70;82.20;;;;;;5038941;28;20041;-73
2023/07/06 05:12:47;;;;;;;14.05;5.80;;;14.70;82.10;;;;;;5029164;28;20029;-74
2023/07/06 05:15:14;;;;;;;13.10;5.63;;;14.90;82.20;;;;;;5037139;28;20485;-74
2023/07/06 05:17:40;;;;;;;14.60;5.53;;;15.60;81.10;;;;;;5044312;28;20021;-74
2023/07/06 05:20:14;;;;;;;12.85;4.68;;;17.10;78.10;;;;;;5045480;28;20056;-74
2023/07/06 05:22:48;;;;;;;10.55;4.35;;;18.60;72.40;;;;;;5039670;28;20013;-74
2023/07/06 05:25:16;;;;;;;11.10;4.60;;;19.80;66.50;;;;;;5040392;28;20127;-75
2023/07/06 05:27:42;;;;;;;12.48;4.60;;;20.80;63.20;;;;;;5026184;28;20036;-75
2023/07/06 05:30:09;;;;;;;14.85;4.60;;;21.40;59.20;;;;;;5026560;28;20025;-74
2023/07/06 05:32:34;;;;;;;12.13;4.28;;;21.80;58.60;;;;;;5030736;28;20029;-74
2023/07/06 05:35:00;;;;;;;13.02;4.40;;;22.30;57.30;;;;;;5037373;28;20101;-75
2023/07/06 05:37:26;;;;;;;13.70;4.28;;;22.60;54.90;;;;;;5024849;28;20032;-75
2023/07/06 05:39:51;;;;;;;12.18;4.45;;;22.50;55.40;;;;;;5035190;28;20481;-74
2023/07/06 05:42:17;;;;;;;12.23;4.75;;;22.90;55.70;;;;;;5042191;28;20418;-75
2023/07/06 05:44:44;;;;;;;14.10;4.72;;;23.00;53.60;;;;;;5030152;28;20029;-75
2023/07/06 05:47:09;;;;;;;12.18;4.60;;;22.60;55.20;;;;;;5034822;28;20039;-75
2023/07/06 05:49:36;;;;;;;12.75;4.32;;;22.80;54.80;;;;;;5029485;28;20025;-75
2023/07/06 05:52:03;;;;;;;12.85;4.43;;;22.80;54.20;;;;;;5027977;28;20201;-74
2023/07/06 05:54:28;;;;;;;10.57;4.47;;;22.60;55.00;;;;;;5038940;28;20074;-74
2023/07/06 05:56:55;;;;;;;16.25;5.03;;;22.60;55.00;;;;;;5035421;28;20033;-74
2023/07/06 05:59:24;;;;;;;12.98;4.80;;;22.10;55.80;;;;;;5034952;28;20096;-74
2023/07/06 06:01:50;;;;;;;14.82;5.03;;;21.40;58.30;;;;;;5041948;28;20397;-74
2023/07/06 06:04:16;;;;;;;13.38;4.65;;;20.70;61.10;;;;;;5036963;28;20030;-74
2023/07/06 06:06:54;;;;;;;15.13;5.47;;;20.10;62.80;;;;;;5041284;28;20047;-74
2023/07/06 06:09:21;;;;;;;16.42;5.63;;;19.50;65.60;;;;;;5032813;28;20040;-75
2023/07/06 06:11:48;;;;;;;18.63;5.32;;;19.10;66.70;;;;;;5027399;28;20029;-74
2023/07/06 06:14:15;;;;;;;18.63;5.55;;;18.80;67.80;;;;;;5039084;28;20642;-74
2023/07/06 06:16:40;;;;;;;11.70;5.35;;;18.60;69.40;;;;;;5036216;28;20030;-74
2023/07/06 06:19:07;;;;;;;14.68;5.50;;;18.60;70.00;;;;;;5042195;28;20064;-74
2023/07/06 06:21:33;;;;;;;18.65;6.72;;;18.50;70.20;;;;;;5045950;28;20049;-75
2023/07/06 06:24:01;;;;;;;15.57;5.72;;;18.20;71.20;;;;;;5044294;28;20338;-74
2023/07/06 06:26:29;;;;;;;15.95;5.88;;;18.20;71.90;;;;;;5045797;28;20025;-73
2023/07/06 06:28:57;;;;;;;17.75;6.07;;;18.50;71.90;;;;;;5034935;28;20039;-74
2023/07/06 06:31:23;;;;;;;15.18;5.95;;;18.50;71.70;;;;;;5034030;28;20140;-74
2023/07/06 06:33:49;;;;;;;13.60;5.70;;;18.60;71.40;;;;;;5041733;28;20020;-74
2023/07/06 06:36:17;;;;;;;14.27;5.75;;;18.60;71.70;;;;;;5042796;28;20063;-74
2023/07/06 06:38:43;;;;;;;14.35;6.00;;;18.80;71.10;;;;;;5040547;28;20079;-74
2023/07/06 06:41:10;;;;;;;18.67;6.00;;;18.60;71.10;;;;;;5035649;28;20044;-74
2023/07/06 06:43:44;;;;;;;17.30;5.78;;;18.70;71.60;;;;;;5030120;28;20017;-73
2023/07/06 06:46:12;;;;;;;21.88;6.28;;;18.90;70.40;;;;;;5034387;28;20041;-74
2023/07/06 06:48:39;;;;;;;16.73;5.22;;;19.00;70.30;;;;;;5034765;28;20021;-73
2023/07/06 06:51:09;;;;;;;16.63;5.78;;;19.00;70.30;;;;;;5036417;28;20029;-74
2023/07/06 06:53:37;;;;;;;17.02;5.97;;;19.10;70.20;;;;;;5034911;28;20021;-74
2023/07/06 06:56:04;;;;;;;20.40;5.95;;;19.30;69.90;;;;;;5036247;28;20555;-74
2023/07/06 06:58:30;;;;;;;16.60;4.88;;;19.30;69.50;;;;;;5038838;28;20029;-73
2023/07/06 07:01:04;;;;;;;14.57;5.13;;;19.50;69.00;;;;;;5026052;28;20034;-74
2023/07/06 07:03:30;;;;;;;17.20;5.60;;;19.50;68.40;;;;;;5039837;28;20029;-74
2023/07/06 07:06:11;;;;;;;18.77;5.28;;;19.60;68.40;;;;;;5035719;28;20087;-74
2023/07/06 07:08:49;;;;;;;14.70;5.82;;;19.60;68.10;;;;;;5036779;28;20105;-74
2023/07/06 07:11:19;;;;;;;13.48;5.97;;;19.70;68.10;;;;;;5036547;28;20056;-75
2023/07/06 07:13:45;;;;;;;14.25;5.25;;;19.70;67.80;;;;;;5033412;28;20017;-75
2023/07/06 07:16:11;;;;;;;14.45;5.68;;;19.50;68.50;;;;;;5030924;28;20049;-74
2023/07/06 07:18:38;;;;;;;13.75;4.35;;;19.70;67.70;;;;;;5041724;28;20041;-75
2023/07/06 07:21:07;;;;;;;11.75;5.22;;;19.70;67.50;;;;;;5043038;28;20044;-75
2023/07/06 07:23:43;;;;;;;12.25;4.43;;;19.90;66.80;;;;;;5028454;28;20026;-75
2023/07/06 07:26:12;;;;;;;13.98;4.30;;;20.10;66.10;;;;;;5035618;28;20409;-75
2023/07/06 07:28:37;;;;;;;14.00;4.65;;;20.40;64.60;;;;;;5038806;28;20029;-74
2023/07/06 07:31:03;;;;;;;14.73;4.07;;;20.50;64.20;;;;;;5035631;28;20022;-75
2023/07/06 07:33:29;;;;;;;10.85;3.55;;;20.50;63.40;;;;;;5025750;28;20134;-74
2023/07/06 07:36:00;;;;;;;10.80;3.40;;;20.50;63.30;;;;;;5042058;28;20045;-74
2023/07/06 07:38:26;;;;;;;10.77;3.17;;;20.60;61.60;;;;;;5035331;28;20406;-74
2023/07/06 07:40:57;;;;;;;12.05;4.03;;;20.70;61.60;;;;;;5041484;28;20044;-74
2023/07/06 07:43:27;;;;;;;10.43;3.70;;;20.70;62.10;;;;;;5020523;28;20307;-74
2023/07/06 07:45:55;;;;;;;15.50;4.00;;;20.70;61.50;;;;;;5034028;28;20444;-74
2023/07/06 07:48:24;;;;;;;11.93;3.97;;;20.60;62.30;;;;;;5038345;28;20120;-75
2023/07/06 07:50:58;;;;;;;11.95;3.75;;;20.60;61.10;;;;;;5038904;28;20128;-74
2023/07/06 07:53:25;;;;;;;9.50;3.58;;;20.70;61.80;;;;;;5032589;28;20025;-74
2023/07/06 07:55:53;;;;;;;11.30;3.78;;;20.90;61.40;;;;;;5031380;28;20030;-75
2023/07/06 07:58:18;;;;;;;12.38;3.90;;;21.00;61.10;;;;;;5022055;28;20037;-74
2023/07/06 08:00:51;;;;;;;13.77;4.43;;;20.90;60.20;;;;;;5031584;28;20022;-75
2023/07/06 08:03:17;;;;;;;14.93;4.07;;;20.50;59.90;;;;;;5025553;28;20386;-74
2023/07/06 08:05:43;;;;;;;12.43;3.58;;;20.60;61.80;;;;;;5033831;28;20040;-74
2023/07/06 08:08:10;;;;;;;13.10;3.97;;;21.00;61.00;;;;;;5028767;28;20113;-74
2023/07/06 08:10:40;;;;;;;11.00;3.50;;;21.00;59.90;;;;;;5028088;28;20156;-74
2023/07/06 08:13:09;;;;;;;10.48;3.45;;;21.00;60.40;;;;;;5038649;28;20108;-74
2023/07/06 08:15:39;;;;;;;9.77;2.83;;;20.50;60.20;;;;;;5022395;28;20765;-74
2023/07/06 08:18:06;;;;;;;10.80;3.63;;;21.00;59.30;;;;;;5034941;28;20025;-74
2023/07/06 08:20:35;;;;;;;8.30;3.10;;;21.20;59.00;;;;;;5038357;28;20037;-75
2023/07/06 08:23:02;;;;;;;11.23;3.55;;;21.60;57.20;;;;;;5034917;28;20033;-74
2023/07/06 08:25:34;;;;;;;8.82;2.92;;;21.50;58.40;;;;;;5039396;28;20025;-75
2023/07/06 08:28:01;;;;;;;9.23;2.90;;;21.60;56.80;;;;;;5044068;28;20028;-74
2023/07/06 08:30:27;;;;;;;11.52;3.10;;;21.80;56.00;;;;;;5025046;28;20049;-75
2023/07/06 08:32:52;;;;;;;10.70;3.35;;;22.00;56.60;;;;;;5026639;28;20491;-75
2023/07/06 08:35:18;;;;;;;9.18;2.78;;;22.20;56.20;;;;;;5028688;28;20283;-75
2023/07/06 08:37:44;;;;;;;9.65;2.90;;;22.20;54.60;;;;;;5039671;28;20029;-75
2023/07/06 08:40:17;;;;;;;8.93;2.53;;;22.40;54.00;;;;;;5035800;28;20033;-74
2023/07/06 08:42:45;;;;;;;7.32;2.05;;;22.70;51.00;;;;;;5029911;28;20040;-74
2023/07/06 08:45:39;;;;;;;6.68;2.55;;;23.00;50.70;;;;;;5036352;28;20363;-74
2023/07/06 08:48:05;;;;;;;6.50;2.13;;;23.30;50.50;;;;;;5028555;28;20040;-75
2023/07/06 08:50:33;;;;;;;7.22;1.90;;;23.50;48.10;;;;;;5030522;28;20038;-74
2023/07/06 08:53:00;;;;;;;7.03;2.30;;;23.50;45.90;;;;;;5037927;28;20037;-74
2023/07/06 08:55:30;;;;;;;5.70;2.00;;;23.40;47.00;;;;;;5041350;28;20037;-74
2023/07/06 08:57:56;;;;;;;9.15;2.33;;;23.50;47.50;;;;;;5037787;28;20118;-74
2023/07/06 09:00:25;;;;;;;10.68;2.78;;;23.70;48.20;;;;;;5035116;28;20116;-75
2023/07/06 09:02:55;;;;;;;6.80;2.10;;;23.70;47.60;;;;;;5035620;28;20082;-74
2023/07/06 09:05:22;;;;;;;9.05;2.50;;;23.70;49.50;;;;;;5039442;28;20045;-74
2023/07/06 09:07:48;;;;;;;11.93;3.15;;;24.10;47.70;;;;;;5041582;28;20028;-74
2023/07/06 09:10:25;;;;;;;5.03;2.15;;;23.50;47.60;;;;;;5039122;28;20374;-74
2023/07/06 09:12:53;;;;;;;6.72;1.90;;;23.70;47.50;;;;;;5036250;28;20030;-74
2023/07/06 09:15:28;;;;;;;5.35;2.35;;;24.10;45.10;;;;;;5026971;28;20091;-75
2023/07/06 09:17:59;;;;;;;8.25;2.50;;;24.40;45.90;;;;;;5022241;28;20361;-75
2023/07/06 09:20:26;;;;;;;6.78;2.05;;;24.50;46.10;;;;;;5036272;28;20065;-75
2023/07/06 09:22:52;;;;;;;5.78;1.85;;;24.80;44.90;;;;;;5040771;28;20098;-76
2023/07/06 09:25:27;;;;;;;7.88;2.30;;;24.90;44.30;;;;;;5035971;28;20454;-74
2023/07/06 09:27:56;;;;;;;6.63;2.50;;;25.20;44.10;;;;;;5035786;28;20026;-74
2023/07/06 09:30:31;;;;;;;7.10;2.53;;;25.30;42.90;;;;;;5033384;28;20025;-75
2023/07/06 09:33:16;;;;;;;7.60;2.55;;;24.90;44.40;;;;;;5029867;28;20091;-75
2023/07/06 09:35:43;;;;;;;8.05;2.65;;;24.50;44.10;;;;;;5024029;28;20040;-75
2023/07/06 09:38:15;;;;;;;7.25;2.30;;;24.00;46.70;;;;;;5028469;28;20134;-75
2023/07/06 09:40:46;;;;;;;8.35;2.90;;;23.60;46.60;;;;;;5045030;28;20473;-75
2023/07/06 09:43:27;;;;;;;10.13;2.63;;;23.60;46.60;;;;;;5032423;28;20017;-75
2023/07/06 09:45:54;;;;;;;8.35;2.10;;;23.50;47.90;;;;;;5036764;28;20116;-74
2023/07/06 09:48:37;;;;;;;8.55;2.97;;;23.70;47.70;;;;;;5041846;28;20024;-75
2023/07/06 09:51:11;;;;;;;7.03;2.10;;;23.80;47.50;;;;;;5040607;28;20037;-75
2023/07/06 09:53:48;;;;;;;7.35;2.28;;;24.10;46.80;;;;;;5044612;28;20021;-75
2023/07/06 09:56:15;;;;;;;6.60;2.58;;;23.70;47.50;;;;;;5029676;28;20471;-75
2023/07/06 09:58:42;;;;;;;8.60;2.50;;;23.10;48.20;;;;;;5028003;28;20373;-75
2023/07/06 10:01:34;;;;;;;6.57;1.88;;;23.00;49.10;;;;;;5037261;28;20045;-74
2023/07/06 10:04:12;;;;;;;5.82;2.28;;;23.20;48.30;;;;;;5020724;28;20044;-74
2023/07/06 10:07:01;;;;;;;7.80;2.30;;;23.00;48.30;;;;;;5020349;28;20044;-76
2023/07/06 10:09:43;;;;;;;7.80;2.22;;;22.90;48.40;;;;;;5045654;28;20393;-75
2023/07/06 10:12:33;;;;;;;7.55;2.60;;;22.90;49.00;;;;;;5025442;28;20546;-76
2023/07/06 10:15:05;;;;;;;10.13;2.65;;;22.80;50.00;;;;;;5041909;28;20044;-75
2023/07/06 10:17:37;;;;;;;7.28;2.50;;;22.60;50.90;;;;;;5039823;28;20039;-75
2023/07/06 10:20:17;;;;;;;8.93;2.70;;;22.40;51.50;;;;;;5026611;28;20371;-74
2023/07/06 10:23:15;;;;;;;10.55;3.30;;;22.20;52.00;;;;;;5024163;28;20025;-74
2023/07/06 10:26:08;;;;;;;9.25;3.50;;;21.90;52.60;;;;;;5027285;28;20075;-74
2023/07/06 10:28:59;;;;;;;8.55;3.10;;;21.90;53.10;;;;;;5029232;28;20025;-74
2023/07/06 10:31:37;;;;;;;8.85;3.25;;;21.70;53.70;;;;;;5026761;28;20041;-76
2023/07/06 10:34:17;;;;;;;7.10;2.63;;;21.60;54.10;;;;;;5023949;28;20033;-76
2023/07/06 10:36:42;;;;;;;13.57;3.28;;;21.90;54.00;;;;;;5039523;28;20033;-76
2023/07/06 10:39:33;;;;;;;9.07;3.22;;;22.00;53.50;;;;;;5035036;28;20030;-76
2023/07/06 10:42:09;;;;;;;10.20;3.05;;;22.00;54.10;;;;;;5032299;28;20045;-75
2023/07/06 10:44:43;;;;;;;7.28;3.00;;;21.90;54.30;;;;;;5025241;28;20017;-76
2023/07/06 10:47:36;;;;;;;9.77;3.10;;;22.10;54.10;;;;;;5034823;28;20053;-76
2023/07/06 10:50:25;;;;;;;9.75;2.63;;;22.30;52.60;;;;;;5038808;28;20036;-76
2023/07/06 10:53:21;;;;;;;8.93;2.88;;;22.40;52.40;;;;;;5030380;28;20125;-76
2023/07/06 10:56:00;;;;;;;9.25;3.25;;;22.60;52.60;;;;;;5035823;28;21100;-75
2023/07/06 10:58:32;;;;;;;7.93;2.60;;;22.50;52.90;;;;;;5022191;28;20029;-76
2023/07/06 11:01:04;;;;;;;8.90;3.28;;;22.50;52.50;;;;;;5034515;28;20080;-76
2023/07/06 11:03:31;;;;;;;10.45;2.90;;;22.50;52.90;;;;;;5034864;28;20025;-77
2023/07/06 11:06:07;;;;;;;7.93;2.50;;;22.40;53.10;;;;;;5025613;28;20029;-74
2023/07/06 11:09:07;;;;;;;8.80;2.97;;;22.60;53.10;;;;;;5039850;28;20037;-74
2023/07/06 11:11:39;;;;;;;7.88;2.60;;;22.90;51.90;;;;;;5027742;28;20036;-74
2023/07/06 11:14:31;;;;;;;10.25;2.70;;;23.10;50.80;;;;;;5030602;28;20048;-74
2023/07/06 11:17:00;;;;;;;8.05;2.60;;;23.30;51.60;;;;;;5037076;28;20659;-74
2023/07/06 11:19:37;;;;;;;7.90;2.55;;;23.50;51.20;;;;;;5045488;28;20478;-75
2023/07/06 11:22:07;;;;;;;13.57;3.10;;;23.50;49.80;;;;;;5030875;28;20129;-74
2023/07/06 11:24:42;;;;;;;8.07;2.65;;;23.50;49.80;;;;;;5034453;28;20029;-74
2023/07/06 11:27:22;;;;;;;8.60;3.10;;;23.40;49.40;;;;;;5024858;28;20426;-74
2023/07/06 11:29:48;;;;;;;7.60;2.78;;;23.40;50.00;;;;;;5038070;28;20166;-75
2023/07/06 11:32:29;;;;;;;8.65;2.95;;;23.60;50.30;;;;;;5026373;28;20142;-75
2023/07/06 11:35:11;;;;;;;11.70;3.05;;;23.60;48.60;;;;;;5037541;28;20041;-74
2023/07/06 11:37:56;;;;;;;7.82;2.90;;;23.50;49.70;;;;;;5037049;28;20460;-74
2023/07/06 11:41:00;;;;;;;9.00;2.95;;;24.00;49.30;;;;;;5035355;28;20046;-74
2023/07/06 11:43:55;;;;;;;9.07;2.58;;;24.20;46.80;;;;;;5031073;28;20021;-74
2023/07/06 11:46:38;;;;;;;5.78;2.15;;;24.10;48.30;;;;;;5027608;28;20033;-75
2023/07/06 11:49:23;;;;;;;7.03;2.50;;;24.60;45.00;;;;;;5036312;28;20040;-75
2023/07/06 11:51:50;;;;;;;7.53;2.60;;;25.00;43.80;;;;;;5022360;28;20086;-75
2023/07/06 11:59:52;;;;;;;6.70;2.30;;;25.00;44.60;;;;;;5030055;28;20086;-75
2023/07/06 12:02:20;;;;;;;9.25;2.40;;;24.90;43.50;;;;;;5032524;28;20108;-75
2023/07/06 12:04:46;;;;;;;6.05;2.25;;;24.70;42.80;;;;;;5016151;28;20420;-75
2023/07/06 12:07:32;;;;;;;6.57;2.28;;;24.20;43.50;;;;;;5024570;28;20040;-76
2023/07/06 12:10:06;;;;;;;10.43;2.40;;;24.50;42.90;;;;;;5038557;28;20029;-75
2023/07/06 12:12:33;;;;;;;6.57;2.20;;;24.30;44.80;;;;;;5037038;28;20032;-75
2023/07/06 12:15:00;;;;;;;4.13;2.00;;;24.10;45.70;;;;;;5029375;28;20045;-75
2023/07/06 12:17:30;;;;;;;6.97;2.38;;;23.90;45.20;;;;;;5038716;28;20039;-75
2023/07/06 12:19:59;;;;;;;5.82;2.30;;;23.90;45.70;;;;;;5033446;28;20021;-75
2023/07/06 12:22:25;;;;;;;4.70;2.35;;;24.20;44.80;;;;;;5035036;28;20477;-75
2023/07/06 12:24:55;;;;;;;7.53;2.10;;;24.60;43.10;;;;;;5037374;28;20083;-75
2023/07/06 12:27:21;;;;;;;6.38;2.55;;;25.10;40.90;;;;;;5030610;28;20045;-76
2023/07/06 12:29:47;;;;;;;6.22;2.33;;;25.30;40.70;;;;;;5034895;28;20497;-74
2023/07/06 12:32:21;;;;;;;5.10;2.20;;;25.10;40.80;;;;;;5032238;28;20113;-74
2023/07/06 12:34:50;;;;;;;5.38;2.10;;;25.00;41.40;;;;;;5036223;28;20108;-74
2023/07/06 12:37:19;;;;;;;6.75;2.40;;;25.10;41.60;;;;;;5028783;28;20132;-75
2023/07/06 12:39:47;;;;;;;7.93;2.50;;;25.50;41.10;;;;;;5038469;28;20056;-75
2023/07/06 12:42:18;;;;;;;6.40;2.25;;;25.70;40.50;;;;;;5037510;28;20902;-75
2023/07/06 12:44:47;;;;;;;7.05;2.80;;;25.20;41.20;;;;;;5040868;28;20013;-75
2023/07/06 12:47:21;;;;;;;7.88;2.80;;;25.00;41.70;;;;;;5037884;28;20041;-75
2023/07/06 12:49:49;;;;;;;;;;;25.10;42.10;;;;;;5040973;28;20032;-75
2023/07/06 12:52:23;;;;;;;6.43;2.35;;;25.00;41.60;;;;;;5043250;28;19955;-75
2023/07/06 12:54:52;;;;;;;5.53;2.42;;;24.50;42.10;;;;;;5029214;28;20016;-75
2023/07/06 12:57:28;;;;;;;5.93;2.10;;;24.60;42.50;;;;;;5042396;28;20120;-75
2023/07/06 13:00:11;;;;;;;6.47;2.55;;;25.20;41.30;;;;;;5030513;28;20106;-74
2023/07/06 13:02:38;;;;;;;7.57;2.42;;;25.50;41.70;;;;;;5039423;28;20363;-75
2023/07/06 13:05:16;;;;;;;6.18;2.35;;;25.50;39.90;;;;;;5028410;28;20029;-76
2023/07/06 13:07:43;;;;;;;4.95;2.17;;;25.10;39.50;;;;;;5042636;28;20031;-75